Terminal Aerodrome Forecast
Issued by NWS Midland/Odessa, TX

Home | Current Version | Previous Version | Text Only | Print | Product List | Glossary On
Versions: 1 2 3 4 5 6 7 8 9 10 11 12 13 14 15 16 17 18 19 20 21 22 23
000
FTUS44 KMAF 300213 AAE
TAFMAF
TAF AMD
KMAF 300213Z 3002/3024 14010KT P6SM SCT150 BKN250
      TEMPO 3002/3004 VRB30G40KT 3SM -TSRA BLDU BKN070CB
     FM300600 VRB05KT P6SM BKN250=

USA.gov is the U.S. government's official web portal to all federal, state and local government web resources and services.